Latest Coastal Weather Observations for Dennes Point

IDT60701

Issued at 8:41 am EST Thursday 26 May 2016 (issued every 10 minutes, with the page automatically refreshed every 10 minutes)

About coastal observations | Map of coastal stations | Coastal observations for TAS | Marine services | Other Formats
Station Details ID: 094255 Name: DENNES POINT Lat: -43.06 Lon: 147.36 Height: 5.67 m
Data from the previous 72 hours. | See also: Recent months at Dennes Point
Date/Time
EST
Temp

°C
Wind Pressure Rain
since 9am
mm
Weather Cloud Vis
km
Sea
Height
m
Swell
Dir
 
Speed
knots
Gust
knots
hPa Trend Height
m
Period
s
Dir
26/08:30am 9.5 SSW 4 5 1002.8 - 0.0 - - - - - - -
26/08:00am 9.2 SW 4 5 1002.5 - 0.0 - - - - - - -
26/07:30am 10.4 CALM 0 0 1002.7 - 0.0 - - - - - - -
26/07:00am 10.7 CALM 0 0 1002.3 - 0.0 - - - - - - -
26/06:30am 10.3 SW 3 4 1002.2 - 0.0 - - - - - - -
26/06:00am 9.9 WSW 3 4 1001.9 - 0.0 - - - - - - -
26/05:30am 10.3 SW 1 3 1001.9 - 0.0 - - - - - - -
26/05:00am 10.6 SSW 5 7 1001.9 - 0.0 - - - - - - -
26/04:30am 9.3 SW 5 6 1002.0 - 0.0 - - - - - - -
26/04:00am 9.1 SSW 7 8 1001.7 - 0.0 - - - - - - -
26/03:30am 9.1 SSW 6 7 1001.6 - 0.0 - - - - - - -
26/03:00am 9.2 SW 4 5 1001.7 - 0.0 - - - - - - -
26/02:30am 9.1 WSW 7 9 1001.9 - 0.0 - - - - - - -
26/02:00am 8.9 SW 6 7 1001.7 - 0.0 - - - - - - -
26/01:30am 9.3 SW 4 5 1001.6 - 0.0 - - - - - - -
26/01:00am 10.3 NE 4 6 1001.7 - 0.0 - - - - - - -
26/12:30am 10.4 NNE 5 6 1002.0 - 0.0 - - - - - - -
26/12:00am 10.2 NNE 6 7 1002.1 - 0.0 - - - - - - -
 
Date/Time
EST
Temp

°C
Wind Pressure Rain
since 9am
mm
Weather Cloud Vis
km
Sea
Height
m
Swell
Dir
 
Speed
knots
Gust
knots
hPa Trend Height
m
Period
s
Dir
25/11:30pm 10.1 NNE 6 9 1002.2 - 0.0 - - - - - - -
25/11:00pm 9.7 NNE 4 5 1002.8 - 0.0 - - - - - - -
25/10:30pm 9.5 NNE 5 7 1003.1 - 0.0 - - - - - - -
25/10:00pm 9.8 NNE 7 8 1003.2 - 0.0 - - - - - - -
25/09:30pm 10.2 N 9 11 1003.4 - 0.0 - - - - - - -
25/09:00pm 10.4 NNE 12 15 1003.4 - 0.0 - - - - - - -
25/08:30pm 10.2 NNE 9 10 1003.7 - 0.0 - - - - - - -
25/08:00pm 10.4 N 5 7 1003.7 - 0.0 - - - - - - -
25/07:30pm 10.3 NNE 13 16 1003.9 - 0.0 - - - - - - -
25/07:00pm 10.1 NNE 12 14 1004.3 - 0.0 - - - - - - -
25/06:30pm 10.3 NNE 11 13 1004.7 - 0.0 - - - - - - -
25/06:00pm 10.5 NNE 8 11 1004.9 - 0.0 - - - - - - -
25/05:30pm 10.4 NNE 8 10 1005.0 - 0.0 - - - - - - -
25/05:00pm 10.4 NNE 8 9 1005.0 - 0.0 - - - - - - -
25/04:30pm 10.5 NNE 8 9 1005.3 - 0.0 - - - - - - -
25/04:00pm 10.4 NNE 7 8 1005.7 - 0.0 - - - - - - -
25/03:30pm 10.3 NNE 8 9 1006.1 - 0.0 - - - - - - -
25/03:00pm 10.4 NNE 7 9 1006.3 - 0.0 - - - - - - -
25/02:30pm 10.0 N 6 9 1006.7 - 0.0 - - - - - - -
25/02:00pm 9.6 NNE 9 11 1007.1 - 0.0 - - - - - - -
25/01:30pm 9.8 NNE 10 12 1007.4 - 0.0 - - - - - - -
25/01:00pm 9.5 NNE 4 6 1007.8 - 0.0 - - - - - - -
25/12:30pm 9.0 N 7 9 1008.4 - 0.0 - - - - - - -
25/12:00pm 9.1 N 8 11 1009.0 - 0.0 - - - - - - -
25/11:30am 8.6 NNE 9 11 1009.7 - 0.0 - - - - - - -
25/11:00am 8.5 NNE 6 9 1010.5 - 0.0 - - - - - - -
25/10:30am 7.8 N 10 11 1011.4 - 0.0 - - - - - - -
25/10:00am 8.1 S 1 3 1011.6 - 0.0 - - - - - - -
25/09:30am 6.8 SSW 4 5 1012.0 - 0.0 - - - - - - -
25/09:00am 6.8 CALM 0 0 1012.4 - 0.0 - - - - - - -
25/08:30am 5.8 SSW 6 7 1012.6 - 0.0 - - - - - - -
25/08:00am 5.6 SSW 4 5 1012.4 - 0.0 - - - - - - -
25/07:30am 6.9 NW 5 7 1012.1 - 0.0 - - - - - - -
25/07:00am 7.5 N 5 7 1011.6 - 0.0 - - - - - - -
25/06:30am 7.5 NNW 3 5 1012.6 - 0.0 - - - - - - -
25/06:00am 6.3 SSW 4 5 1012.9 - 0.0 - - - - - - -
25/05:30am 7.2 SW 5 7 1013.3 - 0.0 - - - - - - -
25/05:00am 6.3 SW 5 7 1013.6 - 0.0 - - - - - - -
25/04:30am 5.6 SSW 4 5 1013.2 - 0.0 - - - - - - -
25/04:00am 5.6 SSW 5 6 1013.3 - 0.0 - - - - - - -
25/03:30am 5.7 SW 7 8 1013.1 - 0.0 - - - - - - -
25/03:00am 6.9 SSW 4 7 1013.3 - 0.0 - - - - - - -
25/02:30am 6.2 S 5 7 1013.9 - 0.0 - - - - - - -
25/02:00am 5.8 S 5 7 1014.1 - 0.0 - - - - - - -
25/01:30am 7.1 W 6 9 1014.3 - 0.0 - - - - - - -
25/01:00am 7.6 W 10 12 1014.6 - 0.0 - - - - - - -
25/12:30am 7.5 W 9 12 1014.7 - 0.0 - - - - - - -
25/12:00am 7.5 W 9 12 1015.1 - 0.0 - - - - - - -
 
Date/Time
EST
Temp

°C
Wind Pressure Rain
since 9am
mm
Weather Cloud Vis
km
Sea
Height
m
Swell
Dir
 
Speed
knots
Gust
knots
hPa Trend Height
m
Period
s
Dir
24/11:30pm 7.6 W 10 12 1015.2 - 0.0 - - - - - - -
24/11:00pm 8.0 W 9 11 1015.4 - 0.0 - - - - - - -
24/10:30pm 8.1 W 10 13 1015.8 - 0.0 - - - - - - -
24/10:00pm 8.8 W 13 16 1015.7 - 0.0 - - - - - - -
24/09:30pm 8.3 W 9 11 1015.9 - 0.0 - - - - - - -
24/09:00pm 8.3 W 6 8 1015.8 - 0.0 - - - - - - -
24/08:30pm 8.1 W 9 11 1016.0 - 0.0 - - - - - - -
24/08:00pm 7.9 WSW 10 12 1015.8 - 0.0 - - - - - - -
24/07:30pm 8.6 WSW 9 11 1015.7 - 0.0 - - - - - - -
24/07:00pm 8.6 WSW 10 13 1015.7 - 0.0 - - - - - - -
24/06:30pm 8.7 WSW 10 13 1015.5 - 0.0 - - - - - - -
24/06:00pm 8.9 WSW 8 11 1015.4 - 0.0 - - - - - - -
24/05:30pm 9.3 WSW 10 13 1015.2 - 0.0 - - - - - - -
24/05:00pm 9.4 SW 10 15 1015.0 - 0.0 - - - - - - -
24/04:30pm 9.8 SW 11 17 1014.8 - 0.0 - - - - - - -
24/04:00pm 10.4 SW 13 19 1014.7 - 0.0 - - - - - - -
24/03:30pm 11.2 SW 15 20 1014.4 - 0.0 - - - - - - -
24/03:00pm 11.6 SW 14 21 1014.4 - 0.0 - - - - - - -
24/02:30pm 11.4 SW 14 20 1014.1 - 0.0 - - - - - - -
24/02:00pm 11.0 SW 14 21 1014.1 - 0.0 - - - - - - -
24/01:35pm 10.6 SSW 10 21 1014.0 - 0.0 - - - - - - -
24/01:30pm 9.9 S 8 11 1014.1 - 0.0 - - - - - - -
24/01:00pm 11.6 SW 13 19 1014.1 - 0.0 - - - - - - -
24/12:30pm 11.0 WSW 11 15 1014.1 - 0.0 - - - - - - -
24/12:00pm 10.0 WSW 14 19 1014.3 - 0.0 - - - - - - -
24/11:30am 9.8 WSW 14 20 1014.4 - 0.0 - - - - - - -
24/11:00am 9.9 SW 14 23 1014.7 - 0.0 - - - - - - -
24/10:30am 10.6 WSW 17 26 1014.1 - 0.0 - - - - - - -
24/10:00am 10.8 SW 15 18 1014.2 - 0.0 - - - - - - -
24/09:30am 10.3 WSW 17 23 1013.7 - 0.0 - - - - - - -
24/09:00am 10.1 WSW 16 19 1013.7 - 4.4 - - - - - - -
24/08:30am 9.6 WSW 12 17 1013.5 - 4.4 - - - - - - -
24/08:00am 9.3 WSW 13 17 1013.2 - 4.4 - - - - - - -
24/07:30am 8.8 WSW 10 13 1012.8 - 4.4 - - - - - - -
24/07:00am 9.2 WSW 11 15 1012.4 - 4.4 - - - - - - -
24/06:30am 9.3 SW 13 17 1012.1 - 4.4 - - - - - - -
24/06:00am 9.3 WSW 14 18 1011.8 - 4.4 - - - - - - -
24/05:30am 9.4 WSW 15 18 1011.6 - 4.4 - - - - - - -
24/05:00am 9.4 WSW 13 17 1011.5 - 4.4 - - - - - - -
24/04:30am 9.3 SW 14 18 1011.3 - 4.4 - - - - - - -
24/04:00am 9.1 WSW 13 18 1011.0 - 4.4 - - - - - - -
24/03:30am 9.3 WSW 14 18 1010.7 - 4.4 - - - - - - -
24/03:00am 9.3 SW 14 19 1010.9 - 4.4 - - - - - - -
24/02:30am 9.1 WSW 15 18 1010.8 - 4.4 - - - - - - -
24/02:00am 9.4 WSW 17 22 1010.6 - 4.4 - - - - - - -
24/01:30am 9.6 WSW 16 22 1010.6 - 4.4 - - - - - - -
24/01:00am 9.5 WSW 12 15 1010.7 - 4.4 - - - - - - -
24/12:30am 9.3 WSW 12 17 1010.7 - 4.2 - - - - - - -
24/12:00am 9.0 SW 8 11 1010.6 - 4.2 - - - - - - -
 
Date/Time
EST
Temp

°C
Wind Pressure Rain
since 9am
mm
Weather Cloud Vis
km
Sea
Height
m
Swell
Dir
 
Speed
knots
Gust
knots
hPa Trend Height
m
Period
s
Dir
23/11:30pm 8.8 SW 9 17 1010.4 - 4.2 - - - - - - -
23/11:00pm 9.1 SW 12 18 1010.1 - 4.2 - - - - - - -
23/10:30pm 9.0 WSW 9 12 1009.9 - 4.2 - - - - - - -
23/10:00pm 9.3 WSW 15 21 1009.9 - 4.2 - - - - - - -
23/09:30pm 9.1 WSW 17 23 1009.4 - 4.2 - - - - - - -
23/09:00pm 8.8 WSW 14 18 1009.5 - 4.2 - - - - - - -
23/08:30pm 9.1 WSW 17 21 1009.2 - 4.2 - - - - - - -
23/08:00pm 9.4 WSW 20 26 1008.8 - 4.2 - - - - - - -
23/07:30pm 9.5 WSW 14 18 1008.5 - 4.2 - - - - - - -
23/07:00pm 9.3 WSW 14 18 1008.1 - 4.2 - - - - - - -
23/06:30pm 9.1 WSW 16 20 1007.6 - 4.2 - - - - - - -
23/06:00pm 8.9 WSW 16 21 1007.2 - 4.2 - - - - - - -
23/05:30pm 9.1 WSW 14 22 1006.6 - 4.2 - - - - - - -
23/05:00pm 9.0 WSW 18 22 1006.1 - 4.2 - - - - - - -
23/04:40pm 8.8 WSW 19 29 1005.6 - 4.2 - - - - - - -
23/04:30pm 9.0 WSW 23 31 1005.4 - 4.0 - - - - - - -
23/04:29pm 9.2 WSW 22 31 1005.4 - 4.0 - - - - - - -
23/04:00pm 9.8 WSW 15 20 1005.2 - 3.8 - - - - - - -
23/03:30pm 9.8 WSW 15 20 1004.7 - 3.8 - - - - - - -
23/03:00pm 10.4 W 14 17 1004.2 - 3.8 - - - - - - -
23/02:30pm 10.6 W 15 20 1003.6 - 3.8 - - - - - - -
23/02:00pm 10.1 WSW 12 16 1003.2 - 3.8 - - - - - - -
23/01:30pm 10.7 WSW 15 19 1003.3 - 3.6 - - - - - - -
23/01:00pm 10.9 W 13 16 1003.1 - 3.4 - - - - - - -
23/12:30pm 10.7 W 9 11 1003.1 - 3.4 - - - - - - -
23/12:00pm 10.6 W 10 13 1003.1 - 3.4 Rain - - - - - -
23/11:30am 10.9 W 6 8 1003.4 - 2.6 - - - - - - -
23/11:00am 11.1 CALM 0 0 1003.5 - 1.8 - - - - - - -
23/10:30am 11.1 N 2 3 1003.4 - 0.8 - - - - - - -
23/10:00am 10.9 CALM 0 1 1003.2 - 0.4 - - - - - - -
23/09:30am 10.9 S 1 3 1003.3 - 0.0 - - - - - - -
23/09:00am 10.8 SSW 2 3 1003.0 - 3.6 Recent precip. - - - - - -

Other Formats:

Comma delimited format used in spreadsheet applications
http://www.bom.gov.au/fwo/IDT60701/IDT60701.94988.axf

JavaScript Object Notation format (JSON) in row-major order
http://www.bom.gov.au/fwo/IDT60701/IDT60701.94988.json